Time;durP1;ratioP1;P1;durP2;ratioP2;P2;SDS_P1;SDS_P2;PMS_P1;PMS_P2;Temp;Humidity;BMP_temperature;BMP_pressure;BME280_temperature;BME280_humidity;BME280_pressure;Samples;Min_cycle;Max_cycle;Signal;HPM_P1;HPM_P2
2022/05/08 00:00:25;;;;;;;19.67;10.37;;;11.50;99.90;;;;;;4992123;28;20675;-80
2022/05/08 00:02:54;;;;;;;20.00;9.70;;;11.50;99.90;;;;;;4990511;28;20617;-79
2022/05/08 00:05:22;;;;;;;21.13;11.27;;;11.50;99.90;;;;;;4991457;28;20221;-79
2022/05/08 00:07:49;;;;;;;19.63;9.50;;;11.50;99.90;;;;;;4991710;28;20717;-79
2022/05/08 00:10:16;;;;;;;23.57;9.83;;;11.50;99.90;;;;;;4992221;28;20213;-79
2022/05/08 00:12:44;;;;;;;23.63;9.20;;;11.50;99.90;;;;;;4992006;28;20334;-79
2022/05/08 00:15:11;;;;;;;18.63;9.50;;;11.40;99.90;;;;;;4991772;28;20244;-79
2022/05/08 00:17:38;;;;;;;16.13;10.10;;;11.50;99.90;;;;;;4988970;28;20987;-79
2022/05/08 00:20:07;;;;;;;19.80;9.67;;;11.40;99.90;;;;;;4991991;28;20253;-78
2022/05/08 00:22:34;;;;;;;23.80;8.47;;;11.40;99.90;;;;;;4992376;28;20212;-81
2022/05/08 00:25:02;;;;;;;17.93;9.03;;;11.50;99.90;;;;;;4991563;28;20206;-80
2022/05/08 00:27:32;;;;;;;22.20;9.03;;;11.40;99.90;;;;;;4991957;28;20355;-80
2022/05/08 00:29:59;;;;;;;19.13;9.33;;;11.40;99.90;;;;;;4988738;28;20205;-79
2022/05/08 00:32:28;;;;;;;20.63;8.93;;;11.30;99.90;;;;;;4988391;28;20213;-79
2022/05/08 00:34:54;;;;;;;22.07;8.87;;;11.30;99.90;;;;;;4991132;28;20232;-80
2022/05/08 00:37:21;;;;;;;22.00;9.10;;;11.30;99.90;;;;;;4989693;28;20217;-80
2022/05/08 00:39:48;;;;;;;20.30;8.90;;;11.20;99.90;;;;;;4988195;28;20205;-80
2022/05/08 00:42:15;;;;;;;20.47;8.97;;;11.20;99.90;;;;;;4990773;28;20263;-79
2022/05/08 00:44:42;;;;;;;23.37;8.67;;;11.20;99.90;;;;;;4990950;28;20239;-80
2022/05/08 00:47:08;;;;;;;23.63;9.10;;;11.10;99.90;;;;;;4989296;28;20209;-79
2022/05/08 00:49:36;;;;;;;18.03;8.57;;;11.10;99.90;;;;;;4990784;28;20245;-79
2022/05/08 00:52:04;;;;;;;24.23;8.60;;;11.10;99.90;;;;;;4990678;28;20249;-79
2022/05/08 00:54:31;;;;;;;18.63;8.27;;;11.00;99.90;;;;;;4990990;28;20663;-79
2022/05/08 00:56:59;;;;;;;18.60;8.83;;;11.00;99.90;;;;;;4988685;28;20580;-78
2022/05/08 00:59:26;;;;;;;21.00;9.13;;;11.00;99.90;;;;;;4990656;28;20283;-78
2022/05/08 01:01:57;;;;;;;18.67;7.73;;;11.00;99.90;;;;;;4990253;28;20287;-78
2022/05/08 01:04:24;;;;;;;21.03;8.30;;;11.00;99.90;;;;;;4990663;28;20230;-78
2022/05/08 01:06:51;;;;;;;24.13;8.87;;;11.00;99.90;;;;;;4990989;28;20253;-78
2022/05/08 01:09:18;;;;;;;21.67;8.60;;;11.00;99.90;;;;;;4990563;28;20271;-77
2022/05/08 01:11:45;;;;;;;22.67;8.10;;;11.00;99.90;;;;;;4990512;28;20652;-78
2022/05/08 01:14:13;;;;;;;20.93;8.00;;;11.00;99.90;;;;;;4988691;28;20263;-78
2022/05/08 01:16:40;;;;;;;25.33;7.97;;;10.90;99.90;;;;;;4989249;28;20236;-77
2022/05/08 01:19:08;;;;;;;19.67;8.50;;;10.90;99.90;;;;;;4990170;28;20224;-79
2022/05/08 01:21:42;;;;;;;21.73;7.70;;;11.00;99.90;;;;;;4990935;28;20533;-78
2022/05/08 01:24:10;;;;;;;20.57;8.03;;;10.90;99.90;;;;;;4989880;28;20208;-78
2022/05/08 01:26:37;;;;;;;26.90;8.00;;;10.90;99.90;;;;;;4987834;28;20217;-79
2022/05/08 01:29:04;;;;;;;18.70;7.20;;;10.90;99.90;;;;;;4990038;28;20869;-79
2022/05/08 01:31:32;;;;;;;22.83;7.00;;;10.80;99.90;;;;;;4991285;28;20619;-78
2022/05/08 01:33:59;;;;;;;19.63;7.13;;;10.80;99.90;;;;;;4992217;28;20298;-79
2022/05/08 01:36:26;;;;;;;34.83;7.80;;;10.80;99.90;;;;;;4992649;28;20327;-77
2022/05/08 01:38:52;;;;;;;21.63;7.73;;;10.80;99.90;;;;;;4991429;28;20235;-78
2022/05/08 01:41:19;;;;;;;20.60;7.80;;;10.80;99.90;;;;;;4994790;28;20203;-79
2022/05/08 01:43:49;;;;;;;23.57;7.47;;;10.80;99.90;;;;;;5002601;28;20579;-79
2022/05/08 01:46:16;;;;;;;17.87;7.67;;;10.80;99.90;;;;;;4996603;28;20204;-78
2022/05/08 01:48:44;;;;;;;25.63;7.47;;;10.80;99.90;;;;;;4995107;28;20246;-78
2022/05/08 01:51:18;;;;;;;18.83;8.23;;;10.70;99.90;;;;;;4978081;28;20681;-78
2022/05/08 01:53:45;;;;;;;20.30;7.20;;;10.70;99.90;;;;;;4994776;28;20211;-78
2022/05/08 01:56:12;;;;;;;25.00;8.37;;;10.70;99.90;;;;;;4976185;28;20241;-76
2022/05/08 01:58:39;;;;;;;27.87;8.77;;;10.70;99.90;;;;;;4995347;28;20211;-79
2022/05/08 02:01:08;;;;;;;18.50;7.30;;;10.70;99.90;;;;;;4994944;28;20242;-78
2022/05/08 02:03:37;;;;;;;30.63;8.93;;;10.70;99.90;;;;;;4995378;28;20252;-79
2022/05/08 02:06:04;;;;;;;26.00;7.20;;;10.70;99.90;;;;;;4995078;28;20270;-79
2022/05/08 02:08:31;;;;;;;18.27;8.23;;;10.70;99.90;;;;;;4997536;28;20239;-77
2022/05/08 02:10:58;;;;;;;23.47;7.73;;;10.60;99.90;;;;;;4995146;28;20207;-78
2022/05/08 02:13:25;;;;;;;26.73;7.17;;;10.60;99.90;;;;;;5000671;28;20234;-78
2022/05/08 02:15:51;;;;;;;23.20;7.60;;;10.60;99.90;;;;;;5005475;28;20242;-78
2022/05/08 02:18:18;;;;;;;23.60;7.80;;;10.60;99.90;;;;;;5003912;28;20199;-78
2022/05/08 02:20:45;;;;;;;20.17;6.83;;;10.50;99.90;;;;;;5004817;28;20215;-78
2022/05/08 02:23:12;;;;;;;23.97;7.63;;;10.50;99.90;;;;;;5005662;28;20219;-78
2022/05/08 02:25:39;;;;;;;21.40;6.53;;;10.40;99.90;;;;;;5004235;28;20203;-78
2022/05/08 02:28:06;;;;;;;25.27;7.57;;;10.40;99.90;;;;;;5004338;28;20297;-78
2022/05/08 02:30:34;;;;;;;21.40;7.03;;;10.40;99.90;;;;;;4998795;28;20215;-78
2022/05/08 02:33:02;;;;;;;24.20;6.83;;;10.30;99.90;;;;;;4993572;28;20207;-79
2022/05/08 02:35:29;;;;;;;26.63;7.07;;;10.30;99.90;;;;;;4985580;28;20231;-78
2022/05/08 02:37:56;;;;;;;21.27;6.77;;;10.30;99.90;;;;;;4990448;28;20203;-77
2022/05/08 02:40:24;;;;;;;25.53;7.50;;;10.30;99.90;;;;;;4987539;28;20285;-77
2022/05/08 02:42:52;;;;;;;24.50;7.70;;;10.30;99.90;;;;;;4988586;28;20218;-78
2022/05/08 02:45:20;;;;;;;21.13;6.57;;;10.20;99.90;;;;;;4989039;28;20215;-77
2022/05/08 02:47:47;;;;;;;25.53;7.37;;;10.20;99.90;;;;;;4988559;28;20284;-77
2022/05/08 02:50:14;;;;;;;26.53;6.73;;;10.10;99.90;;;;;;4988553;28;20235;-78
2022/05/08 02:52:42;;;;;;;18.77;6.60;;;10.10;99.90;;;;;;4989190;28;20238;-79
2022/05/08 03:00:45;;;;;;;26.87;6.67;;;9.90;99.90;;;;;;4986200;28;20211;-78
2022/05/08 03:03:13;;;;;;;23.30;6.27;;;9.90;99.90;;;;;;4987680;28;20265;-77
2022/05/08 03:05:45;;;;;;;24.30;6.83;;;9.80;99.90;;;;;;4989000;28;20242;-77
2022/05/08 03:08:15;;;;;;;23.77;6.60;;;9.80;99.90;;;;;;4985432;28;21130;-78
2022/05/08 03:13:28;;;;;;;24.20;7.50;;;9.70;99.90;;;;;;4987910;28;20238;-79
2022/05/08 03:15:55;;;;;;;22.40;6.37;;;9.70;99.90;;;;;;4988147;28;20214;-77
2022/05/08 03:18:22;;;;;;;23.77;6.50;;;9.60;99.90;;;;;;4988319;28;20718;-77
2022/05/08 03:20:49;;;;;;;23.33;7.23;;;9.50;99.90;;;;;;4988289;28;20674;-78
2022/05/08 03:23:16;;;;;;;24.43;7.00;;;9.50;99.90;;;;;;4969921;28;20213;-77
2022/05/08 03:25:42;;;;;;;22.40;6.73;;;9.40;99.90;;;;;;4988225;28;20217;-77
2022/05/08 03:28:11;;;;;;;26.70;7.83;;;9.40;99.90;;;;;;4988355;28;20245;-79
2022/05/08 03:30:40;;;;;;;25.33;7.20;;;9.30;99.90;;;;;;4985430;28;20249;-78
2022/05/08 03:33:08;;;;;;;22.17;7.30;;;9.20;99.90;;;;;;4988701;28;20213;-77
2022/05/08 03:35:39;;;;;;;29.70;7.77;;;9.20;99.90;;;;;;4985700;28;20235;-78
2022/05/08 03:38:07;;;;;;;23.37;6.40;;;9.10;99.90;;;;;;4987133;28;20214;-78
2022/05/08 03:40:35;;;;;;;25.00;7.60;;;9.10;99.90;;;;;;4987940;28;20236;-77
2022/05/08 03:43:03;;;;;;;23.63;8.03;;;9.10;99.90;;;;;;4987108;28;20738;-78
2022/05/08 03:45:30;;;;;;;18.83;7.00;;;9.00;99.90;;;;;;4986319;28;20705;-78
2022/05/08 03:48:00;;;;;;;25.07;6.53;;;9.00;99.90;;;;;;4985757;28;20251;-79
2022/05/08 03:50:28;;;;;;;24.63;7.17;;;9.00;99.90;;;;;;4986763;28;20300;-77
2022/05/08 03:52:56;;;;;;;24.47;6.70;;;8.90;99.90;;;;;;4988178;28;20662;-78
2022/05/08 03:55:23;;;;;;;24.43;7.57;;;8.90;99.90;;;;;;4986405;28;20313;-77
2022/05/08 03:57:50;;;;;;;24.70;6.63;;;8.80;99.90;;;;;;4988727;28;20232;-77
2022/05/08 04:00:17;;;;;;;19.53;6.50;;;8.80;99.90;;;;;;4988186;28;20216;-78
2022/05/08 04:02:44;;;;;;;31.20;7.77;;;8.70;99.90;;;;;;4988436;28;20241;-77
2022/05/08 04:05:11;;;;;;;32.60;7.93;;;8.70;99.90;;;;;;4987158;28;20681;-79
2022/05/08 04:07:38;;;;;;;26.73;7.63;;;8.70;99.90;;;;;;4971436;28;20753;-78
2022/05/08 04:10:07;;;;;;;26.53;7.00;;;8.70;99.90;;;;;;4984143;28;20328;-78
2022/05/08 04:12:34;;;;;;;27.60;7.13;;;8.60;99.90;;;;;;4988142;28;20264;-78
2022/05/08 04:15:01;;;;;;;22.43;6.70;;;8.60;99.90;;;;;;4988116;28;20367;-78
2022/05/08 04:17:28;;;;;;;23.53;6.97;;;8.60;99.90;;;;;;4988891;28;20370;-77
2022/05/08 04:19:55;;;;;;;25.83;7.97;;;8.60;99.90;;;;;;4987809;28;20718;-78
2022/05/08 04:25:10;;;;;;;28.40;7.93;;;8.50;99.90;;;;;;4991279;28;20232;-78
2022/05/08 04:27:37;;;;;;;25.33;7.40;;;8.50;99.90;;;;;;4990166;28;20212;-79
2022/05/08 04:30:05;;;;;;;22.80;7.47;;;8.50;99.90;;;;;;4991488;28;20745;-77
2022/05/08 04:32:31;;;;;;;26.77;8.73;;;8.50;99.90;;;;;;4990859;28;20274;-77
2022/05/08 04:34:58;;;;;;;24.93;7.17;;;8.50;99.90;;;;;;4991209;28;20315;-77
2022/05/08 04:37:25;;;;;;;19.90;7.27;;;8.50;99.90;;;;;;4989583;28;20267;-78
2022/05/08 04:39:52;;;;;;;27.27;8.00;;;8.50;99.90;;;;;;4991063;28;20236;-78
2022/05/08 04:42:18;;;;;;;28.27;7.77;;;8.60;99.90;;;;;;4991590;28;20256;-78
2022/05/08 04:44:45;;;;;;;27.67;9.57;;;8.70;99.90;;;;;;4991075;28;20308;-77
2022/05/08 04:47:12;;;;;;;27.20;7.67;;;8.60;99.90;;;;;;4989208;28;20584;-79
2022/05/08 04:49:39;;;;;;;22.20;7.80;;;8.70;99.90;;;;;;4987014;28;20275;-78
2022/05/08 04:52:06;;;;;;;23.53;7.50;;;8.70;99.90;;;;;;4990018;28;20259;-78
2022/05/08 04:54:32;;;;;;;25.53;8.20;;;8.70;99.90;;;;;;4986856;28;20663;-77
2022/05/08 04:57:01;;;;;;;27.50;8.07;;;8.70;99.90;;;;;;4990621;28;20253;-79
2022/05/08 04:59:31;;;;;;;26.50;8.27;;;8.70;99.90;;;;;;4985774;28;20206;-79
2022/05/08 05:01:58;;;;;;;29.33;8.40;;;8.70;99.90;;;;;;4972172;28;20225;-77
2022/05/08 05:04:25;;;;;;;27.30;8.53;;;8.80;99.90;;;;;;4990620;28;20314;-78
2022/05/08 05:06:52;;;;;;;32.67;8.00;;;8.80;99.90;;;;;;4988658;28;20233;-79
2022/05/08 05:09:19;;;;;;;26.37;8.50;;;8.90;99.90;;;;;;4973590;28;20687;-79
2022/05/08 05:11:46;;;;;;;21.47;7.67;;;8.90;99.90;;;;;;4989043;28;20202;-78
2022/05/08 05:14:16;;;;;;;27.23;7.17;;;9.00;99.90;;;;;;4990628;28;20214;-78
2022/05/08 05:16:42;;;;;;;27.93;8.50;;;8.90;99.90;;;;;;4990859;28;20238;-79
2022/05/08 05:19:09;;;;;;;23.73;7.73;;;9.00;99.90;;;;;;4989475;28;20260;-78
2022/05/08 05:21:36;;;;;;;26.63;8.27;;;9.00;99.90;;;;;;4989801;28;20747;-78
2022/05/08 05:24:03;;;;;;;22.40;7.80;;;9.10;99.90;;;;;;4990184;28;20195;-78
2022/05/08 05:26:30;;;;;;;25.17;8.20;;;9.10;99.90;;;;;;4988918;28;20245;-77
2022/05/08 05:28:57;;;;;;;22.60;7.17;;;9.10;99.90;;;;;;4989241;28;20341;-78
2022/05/08 05:31:24;;;;;;;24.13;7.40;;;9.10;99.90;;;;;;4988767;28;20219;-77
2022/05/08 05:33:51;;;;;;;24.80;8.30;;;9.20;99.90;;;;;;4988400;28;20269;-77
2022/05/08 05:36:18;;;;;;;17.00;7.23;;;9.20;99.90;;;;;;4984340;28;20202;-78
2022/05/08 05:38:45;;;;;;;27.90;7.43;;;9.30;99.90;;;;;;4985034;28;20645;-76
2022/05/08 05:41:11;;;;;;;24.03;6.63;;;9.40;99.90;;;;;;4985445;28;20205;-78
2022/05/08 05:43:39;;;;;;;19.70;6.63;;;9.40;99.90;;;;;;4988735;28;20207;-77
2022/05/08 05:48:51;;;;;;;18.93;7.13;;;9.60;99.90;;;;;;4986417;28;20215;-78
2022/05/08 05:51:17;;;;;;;15.63;5.73;;;10.00;99.90;;;;;;4987541;28;20318;-77
2022/05/08 05:53:44;;;;;;;24.23;6.43;;;10.90;99.90;;;;;;4985695;28;20226;-78
2022/05/08 05:56:11;;;;;;;22.07;5.87;;;12.00;99.90;;;;;;4983676;28;20301;-78
2022/05/08 05:58:38;;;;;;;19.93;5.97;;;13.10;99.90;;;;;;4969724;28;20265;-78
2022/05/08 06:01:04;;;;;;;16.20;5.37;;;14.20;99.90;;;;;;4988134;28;20651;-76
2022/05/08 06:03:34;;;;;;;12.07;4.45;;;15.20;99.90;;;;;;4988417;28;20687;-78
2022/05/08 06:06:01;;;;;;;15.60;4.70;;;16.10;99.90;;;;;;4984814;28;20224;-78
2022/05/08 06:08:28;;;;;;;13.52;4.90;;;17.00;99.90;;;;;;4970677;28;20297;-77
2022/05/08 06:10:55;;;;;;;16.25;5.03;;;17.70;99.90;;;;;;4988654;28;20239;-78
2022/05/08 06:13:21;;;;;;;14.35;4.40;;;18.10;99.90;;;;;;4988550;28;20283;-77
2022/05/08 06:15:48;;;;;;;12.63;3.63;;;18.50;99.90;;;;;;4987333;28;20246;-77
2022/05/08 06:18:15;;;;;;;11.90;3.58;;;18.90;99.90;;;;;;4986801;28;20242;-76
2022/05/08 06:20:42;;;;;;;12.77;3.55;;;19.20;99.90;;;;;;4988576;28;20207;-78
2022/05/08 06:23:09;;;;;;;9.88;3.42;;;19.50;99.90;;;;;;4988935;28;20281;-77
2022/05/08 06:25:36;;;;;;;14.38;3.53;;;19.60;99.90;;;;;;4987564;28;20203;-77
2022/05/08 06:28:03;;;;;;;16.02;3.97;;;19.90;99.90;;;;;;4985907;28;20261;-76
2022/05/08 06:30:29;;;;;;;10.55;3.50;;;20.30;99.90;;;;;;4987398;28;20642;-75
2022/05/08 06:32:56;;;;;;;13.38;4.05;;;20.70;99.90;;;;;;4964208;28;20203;-76
2022/05/08 06:35:39;;;;;;;11.02;3.50;;;20.80;99.90;;;;;;4988161;28;20213;-76
2022/05/08 06:38:10;;;;;;;14.00;3.60;;;21.10;99.90;;;;;;4987766;28;20290;-77
2022/05/08 06:40:38;;;;;;;13.63;4.10;;;21.30;99.90;;;;;;4983296;28;20678;-76
2022/05/08 06:43:06;;;;;;;8.77;2.80;;;21.30;99.90;;;;;;4984488;28;20257;-75
2022/05/08 06:45:34;;;;;;;13.82;3.25;;;21.50;99.90;;;;;;4986890;28;20602;-77
2022/05/08 06:48:01;;;;;;;11.48;3.75;;;21.60;99.90;;;;;;4987607;28;20669;-77
2022/05/08 06:50:30;;;;;;;12.85;3.75;;;21.60;99.90;;;;;;4984689;28;20389;-78
2022/05/08 06:52:57;;;;;;;8.23;3.08;;;21.40;99.90;;;;;;4986404;28;20207;-76
2022/05/08 06:55:24;;;;;;;11.38;2.95;;;21.50;99.40;;;;;;4987277;28;20258;-77
2022/05/08 06:57:50;;;;;;;7.85;2.85;;;21.50;98.80;;;;;;4969615;28;20246;-77
2022/05/08 07:03:05;;;;;;;9.40;2.85;;;21.50;98.20;;;;;;4981411;28;20199;-77
2022/05/08 07:05:36;;;;;;;11.60;3.35;;;21.50;98.00;;;;;;4984966;28;20223;-77
2022/05/08 07:08:03;;;;;;;9.98;2.83;;;21.60;97.10;;;;;;4986334;28;20218;-78
2022/05/08 07:10:30;;;;;;;7.68;2.50;;;21.60;96.80;;;;;;4985547;28;20235;-76
2022/05/08 07:12:56;;;;;;;9.73;3.05;;;21.70;96.40;;;;;;4985390;28;20207;-76
2022/05/08 07:15:23;;;;;;;7.80;2.63;;;22.00;95.50;;;;;;4985666;28;20199;-78
2022/05/08 07:18:10;;;;;;;10.10;3.30;;;22.30;95.30;;;;;;4986743;28;20210;-76
2022/05/08 07:20:37;;;;;;;9.38;2.60;;;22.30;94.70;;;;;;4986424;28;20199;-80
2022/05/08 07:23:04;;;;;;;12.65;3.03;;;21.90;93.60;;;;;;4984741;28;20584;-78
2022/05/08 07:25:31;;;;;;;13.50;4.75;;;21.20;94.00;;;;;;4983680;28;21007;-77
2022/05/08 07:27:58;;;;;;;43.88;9.35;;;20.40;94.40;;;;;;4986134;28;20956;-80
2022/05/08 07:30:24;;;;;;;41.58;12.65;;;19.50;96.00;;;;;;4968374;28;20239;-80
2022/05/08 07:32:51;;;;;;;54.85;15.52;;;18.80;97.40;;;;;;4985111;28;20281;-78
2022/05/08 07:38:05;;;;;;;27.67;8.98;;;18.70;99.90;;;;;;4987514;28;20257;-78
2022/05/08 07:40:33;;;;;;;29.75;9.68;;;18.40;99.60;;;;;;4987601;28;20274;-78
2022/05/08 07:43:01;;;;;;;24.85;7.10;;;18.00;99.90;;;;;;4985474;28;20203;-78
2022/05/08 07:45:28;;;;;;;59.70;19.30;;;17.50;99.90;;;;;;4987834;28;20216;-78
2022/05/08 07:47:59;;;;;;;17.90;5.60;;;17.30;99.90;;;;;;4987534;28;20207;-78
2022/05/08 07:50:26;;;;;;;82.50;23.77;;;17.10;99.90;;;;;;4988086;28;20251;-77
2022/05/08 07:52:55;;;;;;;57.20;18.02;;;16.70;99.90;;;;;;4987051;28;20682;-79
2022/05/08 07:55:22;;;;;;;12.70;4.38;;;16.50;99.90;;;;;;4987673;28;20556;-81
2022/05/08 07:57:48;;;;;;;24.30;6.70;;;16.30;99.90;;;;;;4988483;28;20659;-77
2022/05/08 08:00:15;;;;;;;12.10;3.78;;;16.50;99.90;;;;;;4989750;28;20214;-79
2022/05/08 08:02:42;;;;;;;12.65;3.67;;;16.90;99.90;;;;;;4987805;28;20621;-79
2022/05/08 08:05:09;;;;;;;10.88;3.70;;;17.20;99.90;;;;;;4990730;28;20693;-79
2022/05/08 08:07:37;;;;;;;11.55;3.10;;;17.60;99.90;;;;;;4990239;28;20208;-79
2022/05/08 08:10:05;;;;;;;14.13;3.50;;;18.00;99.90;;;;;;4989368;28;20227;-79
2022/05/08 08:12:32;;;;;;;9.15;3.60;;;18.60;99.90;;;;;;4989490;28;20643;-79
2022/05/08 08:15:00;;;;;;;16.67;5.13;;;19.00;99.90;;;;;;4988800;28;20196;-81
2022/05/08 08:17:28;;;;;;;10.13;3.22;;;19.40;99.90;;;;;;4990130;28;20226;-79
2022/05/08 08:19:55;;;;;;;12.25;3.72;;;19.70;99.90;;;;;;4985756;28;20234;-79
2022/05/08 08:22:22;;;;;;;11.65;3.30;;;20.00;99.90;;;;;;4990605;28;20204;-79
2022/05/08 08:24:49;;;;;;;11.35;3.00;;;20.30;99.90;;;;;;4989583;28;20647;-77
2022/05/08 08:27:18;;;;;;;9.07;3.20;;;20.50;99.90;;;;;;4972103;28;20203;-77
2022/05/08 08:29:46;;;;;;;10.57;3.47;;;20.60;99.90;;;;;;4986119;28;20242;-78
2022/05/08 08:32:14;;;;;;;9.73;2.90;;;20.40;99.60;;;;;;4988633;28;20591;-80
2022/05/08 08:34:41;;;;;;;9.30;3.47;;;20.10;99.30;;;;;;4990139;28;20229;-79
2022/05/08 08:37:08;;;;;;;8.80;2.90;;;20.00;99.90;;;;;;4989133;28;20317;-79
2022/05/08 08:39:35;;;;;;;9.52;3.20;;;20.10;99.80;;;;;;4984132;28;20253;-79
2022/05/08 08:42:17;;;;;;;7.82;2.70;;;20.00;99.60;;;;;;4990090;28;20305;-76
2022/05/08 08:47:47;;;;;;;9.93;3.20;;;20.40;99.20;;;;;;4989282;28;20625;-77
2022/05/08 08:50:15;;;;;;;8.45;2.97;;;20.60;99.40;;;;;;4987620;28;20246;-79
2022/05/08 08:52:43;;;;;;;8.20;2.70;;;20.80;98.60;;;;;;4986520;28;20664;-78
2022/05/08 08:55:11;;;;;;;8.93;2.78;;;20.80;97.10;;;;;;4989632;28;20269;-80
2022/05/08 08:57:38;;;;;;;8.98;3.13;;;20.30;96.40;;;;;;4989928;28;20569;-78
2022/05/08 09:00:07;;;;;;;11.38;3.13;;;20.00;97.30;;;;;;4986561;28;20207;-78
2022/05/08 09:02:34;;;;;;;7.22;2.50;;;20.10;98.40;;;;;;4989397;28;20294;-78
2022/05/08 09:05:07;;;;;;;7.43;2.28;;;20.00;97.90;;;;;;4988150;28;20330;-78
2022/05/08 09:07:34;;;;;;;8.43;3.25;;;20.10;97.70;;;;;;4971360;28;20207;-77
2022/05/08 09:10:11;;;;;;;7.50;2.53;;;20.30;97.80;;;;;;4985626;28;20653;-78
2022/05/08 09:12:40;;;;;;;6.20;2.47;;;20.40;97.50;;;;;;4988634;28;20238;-78
2022/05/08 09:15:23;;;;;;;5.78;2.50;;;20.60;97.70;;;;;;4987982;28;20219;-79
2022/05/08 09:17:55;;;;;;;10.70;2.53;;;20.70;96.30;;;;;;4988268;28;20320;-79
2022/05/08 09:21:54;;;;;;;9.35;2.88;;;20.60;96.90;;;;;;4988009;28;20215;-77
2022/05/08 09:23:43;;;;;;;7.05;2.65;;;20.50;97.50;;;;;;4984179;28;20656;-78
2022/05/08 09:26:09;;;;;;;5.10;2.25;;;20.40;97.90;;;;;;4985461;28;20712;-80
2022/05/08 09:28:44;;;;;;;12.40;3.00;;;20.30;97.00;;;;;;4986106;28;20301;-78
2022/05/08 09:31:15;;;;;;;6.85;2.38;;;20.20;96.90;;;;;;4986380;28;20708;-80
2022/05/08 09:33:47;;;;;;;7.05;2.42;;;20.20;97.40;;;;;;4987910;28;20511;-77
2022/05/08 09:36:27;;;;;;;8.10;2.63;;;20.20;97.20;;;;;;4986306;28;20215;-79
2022/05/08 09:38:58;;;;;;;7.07;2.88;;;20.30;96.20;;;;;;4986750;28;20218;-79
2022/05/08 09:41:28;;;;;;;7.60;2.40;;;20.30;96.10;;;;;;4989339;28;20242;-78
2022/05/08 09:44:17;;;;;;;10.50;3.10;;;20.20;95.40;;;;;;4989329;28;20246;-78
2022/05/08 09:46:48;;;;;;;6.65;2.38;;;20.10;95.80;;;;;;4986150;28;20668;-79
2022/05/08 09:49:21;;;;;;;11.35;2.42;;;20.10;95.20;;;;;;4983845;28;21293;-78
2022/05/08 09:51:48;;;;;;;4.80;2.70;;;20.10;94.90;;;;;;4988810;28;20293;-78
2022/05/08 09:54:19;;;;;;;6.43;2.40;;;20.20;95.10;;;;;;4987467;28;20203;-80
2022/05/08 09:56:46;;;;;;;6.07;2.60;;;20.10;93.80;;;;;;4987646;28;20204;-79
2022/05/08 09:59:15;;;;;;;9.00;2.30;;;19.90;93.60;;;;;;4984955;28;20217;-78
2022/05/08 10:01:43;;;;;;;9.45;2.58;;;19.70;93.90;;;;;;4988425;28;20233;-80
2022/05/08 10:04:11;;;;;;;8.48;2.55;;;19.70;93.90;;;;;;4989272;28;20223;-78
2022/05/08 10:06:40;;;;;;;11.05;3.05;;;19.70;94.10;;;;;;4992390;28;20207;-77
2022/05/08 10:14:53;;;;;;;8.43;2.88;;;19.40;94.50;;;;;;4992939;28;20218;-78
2022/05/08 10:17:29;;;;;;;5.47;2.35;;;19.40;95.30;;;;;;4990342;28;20204;-81
2022/05/08 10:20:00;;;;;;;6.18;2.70;;;19.40;94.90;;;;;;4996137;28;20233;-78
2022/05/08 10:22:46;;;;;;;4.50;2.45;;;19.50;94.40;;;;;;5000085;28;20195;-77
2022/05/08 10:25:15;;;;;;;5.35;2.30;;;19.50;93.90;;;;;;4979504;28;20207;-78
2022/05/08 10:28:05;;;;;;;5.05;2.45;;;19.70;93.60;;;;;;4994044;28;20290;-79
2022/05/08 10:30:33;;;;;;;8.68;2.80;;;19.70;93.70;;;;;;5003853;28;20653;-79
2022/05/08 10:33:00;;;;;;;8.32;2.30;;;19.70;93.60;;;;;;4996050;28;20206;-79
2022/05/08 10:35:29;;;;;;;6.75;2.08;;;19.80;93.70;;;;;;4986035;28;20219;-81
2022/05/08 10:38:02;;;;;;;7.90;2.58;;;19.80;93.90;;;;;;4985242;28;20675;-78
2022/05/08 10:40:28;;;;;;;5.85;2.42;;;20.00;93.80;;;;;;4987239;28;20203;-79
2022/05/08 10:43:00;;;;;;;7.50;2.33;;;19.80;93.80;;;;;;4986918;28;20265;-79
2022/05/08 10:45:33;;;;;;;6.78;2.40;;;19.80;93.90;;;;;;4969781;28;20214;-79
2022/05/08 10:48:16;;;;;;;11.48;2.33;;;19.60;93.90;;;;;;4984557;28;20203;-78
2022/05/08 10:50:54;;;;;;;8.45;3.08;;;19.50;93.70;;;;;;4986747;28;20231;-80
2022/05/08 10:53:25;;;;;;;5.22;2.28;;;19.50;93.30;;;;;;4985930;28;20222;-82
2022/05/08 10:55:59;;;;;;;6.55;2.35;;;19.30;93.00;;;;;;4970896;28;20233;-80
2022/05/08 10:58:26;;;;;;;7.20;2.38;;;19.30;92.90;;;;;;4986718;28;20320;-79
2022/05/08 11:01:00;;;;;;;7.00;3.28;;;19.40;93.50;;;;;;4983975;28;20595;-79
2022/05/08 11:03:28;;;;;;;7.75;2.60;;;19.50;94.00;;;;;;4987699;28;20223;-79
2022/05/08 11:05:56;;;;;;;4.97;2.50;;;19.60;94.30;;;;;;4972360;28;20726;-84
2022/05/08 11:08:29;;;;;;;5.18;2.33;;;19.70;94.10;;;;;;4992068;28;20203;-83
2022/05/08 11:11:02;;;;;;;6.15;1.90;;;19.60;93.60;;;;;;4993606;28;20218;-81
2022/05/08 11:13:38;;;;;;;6.88;2.25;;;19.50;93.40;;;;;;4987923;28;20574;-79
2022/05/08 11:16:05;;;;;;;5.70;2.42;;;19.60;93.70;;;;;;4988441;28;20217;-82
2022/05/08 11:18:32;;;;;;;6.30;1.90;;;19.80;92.40;;;;;;4988788;28;20699;-84
2022/05/08 11:21:02;;;;;;;7.60;2.40;;;19.80;91.80;;;;;;4966538;28;20636;-80
2022/05/08 11:23:32;;;;;;;4.15;1.98;;;19.40;91.30;;;;;;4984645;28;20199;-80
2022/05/08 11:26:07;;;;;;;11.07;2.55;;;19.40;92.60;;;;;;4969624;28;20222;-81
2022/05/08 11:28:47;;;;;;;6.00;2.00;;;19.40;93.10;;;;;;4985650;28;20282;-80
2022/05/08 11:31:19;;;;;;;5.40;2.42;;;19.50;92.70;;;;;;4967657;28;20661;-81
2022/05/08 11:36:34;;;;;;;8.35;2.33;;;19.60;93.00;;;;;;4992478;28;20288;-81
2022/05/08 11:39:17;;;;;;;7.00;2.60;;;19.60;93.00;;;;;;4991719;28;20833;-82
2022/05/08 11:41:45;;;;;;;6.88;2.53;;;19.60;92.80;;;;;;4974244;28;20252;-82
2022/05/08 11:44:15;;;;;;;5.63;2.10;;;19.60;93.00;;;;;;4989400;28;20215;-81
2022/05/08 11:46:50;;;;;;;3.95;2.00;;;19.80;92.70;;;;;;4990962;28;20215;-80
2022/05/08 11:49:22;;;;;;;8.68;2.22;;;19.90;91.90;;;;;;4988469;28;20581;-79
2022/05/08 11:51:51;;;;;;;5.65;2.42;;;20.10;92.00;;;;;;4991268;28;20246;-82
2022/05/08 11:54:32;;;;;;;11.82;2.50;;;20.20;91.90;;;;;;4990066;28;20214;-81
2022/05/08 11:57:21;;;;;;;6.68;2.00;;;20.30;91.60;;;;;;4990282;28;20207;-81
2022/05/08 11:59:49;;;;;;;6.07;2.13;;;20.40;90.10;;;;;;4987685;28;20211;-84
2022/05/08 12:02:18;;;;;;;5.95;1.88;;;20.30;90.20;;;;;;4989569;28;20207;-81
2022/05/08 12:04:58;;;;;;;5.22;2.00;;;20.40;90.00;;;;;;4990786;28;20219;-80
2022/05/08 12:07:25;;;;;;;7.82;2.03;;;20.60;90.40;;;;;;4988712;28;20211;-80
2022/05/08 12:09:55;;;;;;;5.18;1.88;;;20.80;90.00;;;;;;4989196;28;20299;-81
2022/05/08 12:12:32;;;;;;;7.75;2.88;;;20.70;89.40;;;;;;4988522;28;20278;-81
2022/05/08 12:15:06;;;;;;;5.88;1.90;;;20.70;90.30;;;;;;4991381;28;20280;-80
2022/05/08 12:17:44;;;;;;;6.80;1.90;;;20.60;90.20;;;;;;4987778;28;20211;-81
2022/05/08 12:20:19;;;;;;;4.95;1.65;;;20.60;90.00;;;;;;4989014;28;20219;-81
2022/05/08 12:22:59;;;;;;;6.15;2.03;;;20.70;89.50;;;;;;4989237;28;20221;-81
2022/05/08 12:25:27;;;;;;;6.25;2.00;;;20.80;89.40;;;;;;4987444;28;20683;-81
2022/05/08 12:27:54;;;;;;;5.85;2.08;;;20.80;89.20;;;;;;4990871;28;20211;-80
2022/05/08 12:30:21;;;;;;;4.93;1.90;;;20.90;89.70;;;;;;4990947;28;20211;-83
2022/05/08 12:32:48;;;;;;;5.70;2.33;;;21.00;89.00;;;;;;4988428;28;20203;-83
2022/05/08 12:35:15;;;;;;;5.18;2.05;;;21.00;88.90;;;;;;4988853;28;20306;-83
2022/05/08 12:37:42;;;;;;;6.18;2.00;;;21.00;87.00;;;;;;4973212;28;20285;-82
2022/05/08 12:40:09;;;;;;;6.05;2.15;;;21.10;87.70;;;;;;4973093;28;20282;-82
2022/05/08 12:42:36;;;;;;;7.90;2.00;;;21.10;87.00;;;;;;4988325;28;20329;-83
2022/05/08 12:45:04;;;;;;;4.43;1.80;;;21.20;86.60;;;;;;4971998;28;20278;-82
2022/05/08 12:47:32;;;;;;;4.90;1.75;;;21.30;86.80;;;;;;4991609;28;20230;-83
2022/05/08 12:50:05;;;;;;;4.18;1.75;;;21.20;86.50;;;;;;4988607;28;20235;-80
2022/05/08 12:52:32;;;;;;;4.78;2.05;;;21.20;86.60;;;;;;4989731;28;20234;-83
2022/05/08 12:54:59;;;;;;;9.20;2.30;;;21.30;87.30;;;;;;4990545;28;20555;-81
2022/05/08 13:00:15;;;;;;;5.85;1.90;;;21.30;86.10;;;;;;4986158;28;20593;-82
2022/05/08 13:02:42;;;;;;;7.88;2.28;;;21.20;85.40;;;;;;4992003;28;20207;-83
2022/05/08 13:05:09;;;;;;;8.68;2.35;;;21.30;85.60;;;;;;4994881;28;20215;-85
2022/05/08 13:07:36;;;;;;;5.65;1.80;;;21.10;83.10;;;;;;4991142;28;20216;-82
2022/05/08 13:10:03;;;;;;;7.60;2.00;;;21.00;83.70;;;;;;4973616;28;20223;-83
2022/05/08 13:12:31;;;;;;;7.45;2.05;;;21.00;85.10;;;;;;4987207;28;20588;-82
2022/05/08 13:14:58;;;;;;;6.82;2.70;;;21.10;83.80;;;;;;4990056;28;20675;-82
2022/05/08 13:17:25;;;;;;;5.20;2.08;;;21.10;83.60;;;;;;4993752;28;20266;-82
2022/05/08 13:19:52;;;;;;;8.60;1.95;;;21.10;83.40;;;;;;4981036;28;20566;-82
2022/05/08 13:22:19;;;;;;;6.43;2.20;;;21.10;83.00;;;;;;4992476;28;20566;-82
2022/05/08 13:24:49;;;;;;;5.50;1.90;;;21.10;83.20;;;;;;4985464;28;20207;-82